createdAt,value
2023-03-26T00:01:46.988Z,9.43
2023-03-26T00:04:21.990Z,9.48
2023-03-26T00:06:50.533Z,9.51
2023-03-26T00:09:19.291Z,9.23
2023-03-26T00:11:47.490Z,9.22
2023-03-26T00:14:17.954Z,9.17
2023-03-26T00:16:47.817Z,9.04
2023-03-26T00:19:17.053Z,8.94
2023-03-26T00:21:45.154Z,8.96
2023-03-26T00:24:15.493Z,9.06
2023-03-26T00:26:45.035Z,8.98
2023-03-26T00:29:14.141Z,8.96
2023-03-26T00:31:46.766Z,8.81
2023-03-26T00:34:18.821Z,8.91
2023-03-26T00:36:47.567Z,9.09
2023-03-26T00:39:18.104Z,8.85
2023-03-26T00:41:47.467Z,8.87
2023-03-26T00:44:16.049Z,8.98
2023-03-26T00:46:44.157Z,8.83
2023-03-26T00:49:15.036Z,8.90
2023-03-26T00:51:43.554Z,8.63
2023-03-26T00:54:12.121Z,8.77
2023-03-26T00:56:40.233Z,8.73
2023-03-26T00:59:09.540Z,8.98
2023-03-26T01:01:38.085Z,9.10
2023-03-26T01:04:31.230Z,8.76
2023-03-26T01:07:09.399Z,8.71
2023-03-26T01:09:45.348Z,8.65
2023-03-26T01:12:18.623Z,8.84
2023-03-26T01:14:52.058Z,8.49
2023-03-26T01:17:22.262Z,8.85
2023-03-26T01:20:20.756Z,8.63
2023-03-26T01:22:52.559Z,9.01
2023-03-26T01:25:23.690Z,8.67
2023-03-26T01:27:56.234Z,8.69
2023-03-26T01:30:38.138Z,8.64
2023-03-26T01:33:08.198Z,8.84
2023-03-26T01:35:39.214Z,8.65
2023-03-26T01:38:40.254Z,8.52
2023-03-26T01:41:11.645Z,8.74
2023-03-26T01:43:46.464Z,8.47
2023-03-26T01:46:16.185Z,8.61
2023-03-26T01:48:46.398Z,8.58
2023-03-26T01:51:24.595Z,8.60
2023-03-26T01:53:53.186Z,8.65
2023-03-26T01:57:01.302Z,8.54
2023-03-26T01:59:35.708Z,8.76
2023-03-26T02:02:16.032Z,8.62
2023-03-26T02:04:53.552Z,8.67
2023-03-26T02:07:34.793Z,8.50
2023-03-26T02:10:10.808Z,8.71
2023-03-26T02:12:42.426Z,8.49
2023-03-26T02:15:11.671Z,8.51
2023-03-26T02:17:40.603Z,8.53
2023-03-26T02:20:11.026Z,8.35
2023-03-26T02:22:41.231Z,8.60
2023-03-26T02:25:12.393Z,8.43
2023-03-26T02:27:42.768Z,8.16
2023-03-26T02:30:15.232Z,8.26
2023-03-26T02:32:44.223Z,8.25
2023-03-26T02:35:13.080Z,8.46
2023-03-26T02:37:42.370Z,7.97
2023-03-26T02:40:11.984Z,7.90
2023-03-26T02:42:41.078Z,7.88
2023-03-26T02:45:09.692Z,8.02
2023-03-26T02:47:39.327Z,8.10
2023-03-26T02:50:10.376Z,7.82
2023-03-26T02:52:40.281Z,8.07
2023-03-26T02:55:09.200Z,8.25
2023-03-26T02:57:37.700Z,8.40
2023-03-26T03:00:15.464Z,8.31
2023-03-26T03:02:48.557Z,8.20
2023-03-26T03:07:58.486Z,8.50
2023-03-26T03:10:28.432Z,8.47
2023-03-26T03:12:59.162Z,8.59
2023-03-26T03:15:28.491Z,8.61
2023-03-26T03:17:56.697Z,8.46
2023-03-26T03:20:27.459Z,8.90
2023-03-26T03:22:55.599Z,8.84
2023-03-26T03:25:23.854Z,8.54
2023-03-26T03:27:54.188Z,8.65
2023-03-26T03:30:22.455Z,8.59
2023-03-26T03:32:55.142Z,8.50
2023-03-26T03:35:24.030Z,8.60
2023-03-26T03:37:52.546Z,8.36
2023-03-26T03:40:20.809Z,8.24
2023-03-26T03:42:49.560Z,8.10
2023-03-26T03:45:20.301Z,8.12
2023-03-26T03:47:49.243Z,7.92
2023-03-26T03:50:18.360Z,8.11
2023-03-26T03:52:47.275Z,8.58
2023-03-26T03:55:17.613Z,8.03
2023-03-26T03:57:46.424Z,7.98
2023-03-26T04:00:15.839Z,7.57
2023-03-26T04:02:46.427Z,7.24
2023-03-26T04:05:15.262Z,6.86
2023-03-26T04:07:44.198Z,6.74
2023-03-26T04:10:16.288Z,6.61
2023-03-26T04:13:05.298Z,6.54
2023-03-26T04:15:36.251Z,6.39
2023-03-26T04:18:04.920Z,6.42
2023-03-26T04:20:34.117Z,6.31
2023-03-26T04:23:03.606Z,5.95
2023-03-26T04:25:33.513Z,5.39
2023-03-26T04:28:06.684Z,5.42
2023-03-26T04:30:36.616Z,5.37
2023-03-26T04:33:06.704Z,5.17
2023-03-26T04:35:35.627Z,5.53
2023-03-26T04:38:08.074Z,4.75
2023-03-26T04:40:37.448Z,4.46
2023-03-26T04:43:06.655Z,4.64
2023-03-26T04:45:35.473Z,4.97
2023-03-26T04:48:04.052Z,5.22
2023-03-26T04:50:32.187Z,5.69
2023-03-26T04:53:00.431Z,5.74
2023-03-26T04:55:40.207Z,5.99
2023-03-26T04:58:09.767Z,6.11
2023-03-26T05:00:44.442Z,6.25
2023-03-26T05:03:12.754Z,6.78
2023-03-26T05:05:41.374Z,6.52
2023-03-26T05:08:10.582Z,6.69
2023-03-26T05:10:38.784Z,6.84
2023-03-26T05:13:08.154Z,7.13
2023-03-26T05:15:36.671Z,7.69
2023-03-26T05:18:04.905Z,9.43
2023-03-26T05:20:34.007Z,10.30
2023-03-26T05:23:03.144Z,10.38
2023-03-26T05:25:31.780Z,10.35
2023-03-26T05:28:01.475Z,8.89
2023-03-26T05:30:30.979Z,8.58
2023-03-26T05:32:59.396Z,8.23
2023-03-26T05:35:28.411Z,8.47
2023-03-26T05:37:56.783Z,8.60
2023-03-26T05:40:24.932Z,8.30
2023-03-26T05:42:53.612Z,8.22
2023-03-26T05:45:23.815Z,8.16
2023-03-26T05:47:54.497Z,8.03
2023-03-26T05:50:24.128Z,8.28
2023-03-26T05:52:52.667Z,8.41
2023-03-26T05:55:24.428Z,8.52
2023-03-26T05:58:01.637Z,9.15
2023-03-26T06:00:32.218Z,10.33
2023-03-26T06:03:02.608Z,10.99
2023-03-26T06:05:38.155Z,12.10
2023-03-26T06:08:09.272Z,12.77
2023-03-26T06:10:41.516Z,12.78
2023-03-26T06:13:12.343Z,13.24
2023-03-26T06:15:42.429Z,13.91
2023-03-26T06:18:11.728Z,12.93
2023-03-26T06:20:45.172Z,12.83
2023-03-26T06:23:16.284Z,13.22
2023-03-26T06:25:47.163Z,13.49
2023-03-26T06:28:16.751Z,14.08
2023-03-26T06:30:46.184Z,14.17
2023-03-26T06:33:14.665Z,14.32
2023-03-26T06:35:45.661Z,14.82
2023-03-26T06:38:14.190Z,15.40
2023-03-26T06:40:42.667Z,15.30
2023-03-26T06:43:14.641Z,16.06
2023-03-26T06:45:44.634Z,15.16
2023-03-26T06:48:14.521Z,16.17
2023-03-26T06:50:43.365Z,16.36
2023-03-26T06:53:11.732Z,16.22
2023-03-26T06:55:42.083Z,16.81
2023-03-26T06:58:12.618Z,16.99
2023-03-26T07:00:42.386Z,15.83
2023-03-26T07:03:12.201Z,16.39
2023-03-26T07:05:50.080Z,14.73
2023-03-26T07:08:20.167Z,13.88
2023-03-26T07:10:54.162Z,13.60
2023-03-26T07:13:22.983Z,13.11
2023-03-26T07:15:52.744Z,13.05
2023-03-26T07:18:21.352Z,12.44
2023-03-26T07:20:50.750Z,14.61
2023-03-26T07:23:21.549Z,13.92
2023-03-26T07:25:53.247Z,14.16
2023-03-26T07:29:03.757Z,14.59
2023-03-26T07:31:46.978Z,13.73
2023-03-26T07:34:44.446Z,15.36
2023-03-26T07:37:13.358Z,15.65
2023-03-26T07:39:46.334Z,16.76
2023-03-26T07:42:29.033Z,14.68
2023-03-26T07:45:33.030Z,14.17
2023-03-26T07:48:02.421Z,13.30
2023-03-26T07:50:31.782Z,14.13
2023-03-26T07:53:00.283Z,13.87
2023-03-26T07:55:29.240Z,13.40
2023-03-26T07:58:39.797Z,14.70
2023-03-26T08:01:28.289Z,13.87
2023-03-26T08:04:24.199Z,15.01
2023-03-26T08:07:03.948Z,15.24
2023-03-26T08:09:46.074Z,15.02
2023-03-26T08:12:28.513Z,15.59
2023-03-26T08:15:09.089Z,14.41
2023-03-26T08:17:48.137Z,14.77
2023-03-26T08:20:31.234Z,14.89
2023-03-26T08:23:34.363Z,15.08
2023-03-26T08:26:15.352Z,14.03
2023-03-26T08:28:59.608Z,14.69
2023-03-26T08:31:36.668Z,14.68
2023-03-26T08:34:05.561Z,14.59
2023-03-26T08:36:34.076Z,15.57
2023-03-26T08:39:02.016Z,15.95
2023-03-26T08:41:30.145Z,15.74
2023-03-26T08:44:32.041Z,15.15
2023-03-26T08:47:12.327Z,15.72
2023-03-26T08:49:54.577Z,16.02
2023-03-26T08:52:35.784Z,15.12
2023-03-26T08:55:22.481Z,14.55
2023-03-26T08:58:09.236Z,15.17
2023-03-26T09:00:59.075Z,15.54
2023-03-26T09:03:36.477Z,16.55
2023-03-26T09:06:33.452Z,16.68
2023-03-26T09:09:34.420Z,16.11
2023-03-26T09:12:33.383Z,15.86
2023-03-26T09:15:26.481Z,16.63
2023-03-26T09:18:09.444Z,15.89
2023-03-26T09:21:15.224Z,16.27
2023-03-26T09:23:46.557Z,15.78
2023-03-26T09:26:30.537Z,17.02
2023-03-26T09:29:07.991Z,17.36
2023-03-26T09:31:48.162Z,17.65
2023-03-26T09:34:43.350Z,17.86
2023-03-26T09:37:18.468Z,17.98
2023-03-26T09:40:12.879Z,16.79
2023-03-26T09:42:54.364Z,16.79
2023-03-26T09:45:25.558Z,15.59
2023-03-26T09:48:12.151Z,16.86
2023-03-26T09:50:46.954Z,16.19
2023-03-26T09:53:26.885Z,16.24
2023-03-26T09:56:23.405Z,16.57
2023-03-26T09:59:21.038Z,15.44
2023-03-26T10:02:45.551Z,15.62
2023-03-26T10:05:53.493Z,15.53
2023-03-26T10:08:44.551Z,16.03
2023-03-26T10:11:41.921Z,16.05
2023-03-26T10:14:18.961Z,15.48
2023-03-26T10:17:15.801Z,14.28
2023-03-26T10:19:50.298Z,14.66
2023-03-26T10:22:47.684Z,14.94
2023-03-26T10:25:44.869Z,14.76
2023-03-26T10:28:35.600Z,15.40
2023-03-26T10:31:06.707Z,16.74
2023-03-26T10:34:29.207Z,19.20
2023-03-26T10:37:18.197Z,19.40
2023-03-26T10:40:32.975Z,17.80
2023-03-26T10:43:14.729Z,18.09
2023-03-26T10:45:55.519Z,16.74
2023-03-26T10:48:47.074Z,15.81
2023-03-26T10:51:43.214Z,15.69
2023-03-26T10:54:36.334Z,15.96
2023-03-26T10:57:13.308Z,16.43
2023-03-26T10:59:41.339Z,15.78
2023-03-26T11:02:40.702Z,14.34
2023-03-26T11:05:52.418Z,13.91
2023-03-26T11:08:31.210Z,15.77
2023-03-26T11:12:27.194Z,15.97
2023-03-26T11:15:00.884Z,15.93
2023-03-26T11:18:04.496Z,16.33
2023-03-26T11:20:37.054Z,15.77
2023-03-26T11:24:05.022Z,15.55
2023-03-26T11:26:56.722Z,15.79
2023-03-26T11:29:41.457Z,15.89
2023-03-26T11:32:13.052Z,15.95
2023-03-26T11:34:59.991Z,17.23
2023-03-26T11:37:51.417Z,19.58
2023-03-26T11:40:28.109Z,23.01
2023-03-26T11:43:01.212Z,24.66
2023-03-26T11:45:32.540Z,22.41
2023-03-26T11:48:09.555Z,20.54
2023-03-26T11:50:54.315Z,20.49
2023-03-26T11:53:27.958Z,19.45
2023-03-26T11:56:15.217Z,20.40
2023-03-26T11:59:05.611Z,21.02
2023-03-26T12:01:50.734Z,22.25
2023-03-26T12:04:27.794Z,21.95
2023-03-26T12:07:00.043Z,21.58
2023-03-26T12:09:28.427Z,21.01
2023-03-26T12:12:01.334Z,21.32
2023-03-26T12:14:33.459Z,21.49
2023-03-26T12:17:12.134Z,21.22
2023-03-26T12:19:45.485Z,20.93
2023-03-26T12:22:32.130Z,21.59
2023-03-26T12:25:09.975Z,20.10
2023-03-26T12:27:38.269Z,19.47
2023-03-26T12:30:13.228Z,19.48
2023-03-26T12:32:46.736Z,19.63
2023-03-26T12:35:21.067Z,18.76
2023-03-26T12:37:49.221Z,18.31
2023-03-26T12:40:32.897Z,18.75
2023-03-26T12:44:52.875Z,18.55
2023-03-26T12:47:55.571Z,17.97
2023-03-26T12:48:47.619Z,18.10
2023-03-26T12:51:57.036Z,18.70
2023-03-26T12:54:29.045Z,18.33
2023-03-26T12:57:11.317Z,18.43
2023-03-26T12:59:56.019Z,17.98
2023-03-26T13:02:59.182Z,18.07
2023-03-26T13:05:46.244Z,18.65
2023-03-26T13:08:39.740Z,18.29
2023-03-26T13:11:21.928Z,18.98
2023-03-26T13:13:58.972Z,18.41
2023-03-26T13:16:36.977Z,18.92
2023-03-26T13:19:09.696Z,18.24
2023-03-26T13:21:47.604Z,19.16
2023-03-26T13:24:38.505Z,18.74
2023-03-26T13:27:44.095Z,18.23
2023-03-26T13:30:23.436Z,17.93
2023-03-26T13:33:03.472Z,18.18
2023-03-26T13:36:23.080Z,17.66
2023-03-26T13:39:08.494Z,17.49
2023-03-26T13:41:43.781Z,17.66
2023-03-26T13:44:28.364Z,18.05
2023-03-26T13:47:02.210Z,17.44
2023-03-26T13:49:48.982Z,17.66
2023-03-26T13:52:27.574Z,17.38
2023-03-26T13:55:22.231Z,17.54
2023-03-26T13:58:14.069Z,18.18
2023-03-26T14:00:55.469Z,18.72
2023-03-26T14:03:53.750Z,18.08
2023-03-26T14:06:47.265Z,17.69
2023-03-26T14:09:37.255Z,18.32
2023-03-26T14:12:30.216Z,18.31
2023-03-26T14:15:05.570Z,18.46
2023-03-26T14:17:39.192Z,18.44
2023-03-26T14:20:22.788Z,18.45
2023-03-26T14:23:23.118Z,19.12
2023-03-26T14:26:01.833Z,19.50
2023-03-26T14:28:36.622Z,18.79
2023-03-26T14:31:11.578Z,18.76
2023-03-26T14:33:46.740Z,18.76
2023-03-26T14:36:47.885Z,18.46
2023-03-26T14:39:58.364Z,18.93
2023-03-26T14:42:54.469Z,18.57
2023-03-26T14:45:48.960Z,18.43
2023-03-26T14:48:54.742Z,17.79
2023-03-26T14:52:02.722Z,17.69
2023-03-26T14:54:33.941Z,18.55
2023-03-26T14:57:21.706Z,18.46
2023-03-26T15:00:17.854Z,18.57
2023-03-26T15:03:23.514Z,17.41
2023-03-26T15:06:23.056Z,17.73
2023-03-26T15:09:25.380Z,18.47
2023-03-26T15:12:12.214Z,18.76
2023-03-26T15:15:19.365Z,18.09
2023-03-26T15:18:02.102Z,17.81
2023-03-26T15:21:06.452Z,18.23
2023-03-26T15:23:37.346Z,18.60
2023-03-26T15:26:17.703Z,17.67
2023-03-26T15:29:30.351Z,17.71
2023-03-26T15:32:41.270Z,17.76
2023-03-26T15:35:43.622Z,17.57
2023-03-26T15:38:30.231Z,17.23
2023-03-26T15:40:58.230Z,17.61
2023-03-26T15:43:31.839Z,17.58
2023-03-26T15:46:12.253Z,17.85
2023-03-26T15:48:55.747Z,17.25
2023-03-26T15:51:47.099Z,17.33
2023-03-26T15:54:23.764Z,17.04
2023-03-26T15:57:27.759Z,17.27
2023-03-26T16:00:25.971Z,16.94
2023-03-26T16:03:25.799Z,17.18
2023-03-26T16:05:53.878Z,16.65
2023-03-26T16:08:41.731Z,16.48
2023-03-26T16:11:12.895Z,16.36
2023-03-26T16:13:42.413Z,16.25
2023-03-26T16:16:16.629Z,16.27
2023-03-26T16:19:19.318Z,16.54
2023-03-26T16:22:00.971Z,16.11
2023-03-26T16:24:50.374Z,15.85
2023-03-26T16:27:29.981Z,15.96
2023-03-26T16:30:01.283Z,15.11
2023-03-26T16:32:35.295Z,15.11
2023-03-26T16:35:21.243Z,15.05
2023-03-26T16:37:50.934Z,15.17
2023-03-26T16:40:22.659Z,15.16
2023-03-26T16:43:05.667Z,15.10
2023-03-26T16:46:10.995Z,14.95
2023-03-26T16:48:46.553Z,14.77
2023-03-26T16:51:20.422Z,14.49
2023-03-26T16:54:19.199Z,14.58
2023-03-26T16:56:56.732Z,14.56
2023-03-26T16:59:39.961Z,14.34
2023-03-26T17:02:56.954Z,13.90
2023-03-26T17:05:47.740Z,14.16
2023-03-26T17:08:36.234Z,14.26
2023-03-26T17:11:38.498Z,14.01
2023-03-26T17:14:20.240Z,13.69
2023-03-26T17:17:28.237Z,13.71
2023-03-26T17:20:08.790Z,13.86
2023-03-26T17:22:42.312Z,13.74
2023-03-26T17:25:34.447Z,13.86
2023-03-26T17:28:20.875Z,13.60
2023-03-26T17:31:05.443Z,13.50
2023-03-26T17:33:36.841Z,13.70
2023-03-26T17:36:24.388Z,14.01
2023-03-26T17:39:00.617Z,13.87
2023-03-26T17:41:52.170Z,13.98
2023-03-26T17:44:46.509Z,13.75
2023-03-26T17:47:27.471Z,13.54
2023-03-26T17:50:12.254Z,13.35
2023-03-26T17:53:00.340Z,13.52
2023-03-26T17:55:31.365Z,13.46
2023-03-26T17:58:35.696Z,13.67
2023-03-26T18:01:12.556Z,13.69
2023-03-26T18:03:55.002Z,13.40
2023-03-26T18:06:26.794Z,13.55
2023-03-26T18:09:06.343Z,13.43
2023-03-26T18:11:44.038Z,13.53
2023-03-26T18:14:33.464Z,13.29
2023-03-26T18:17:02.102Z,13.30
2023-03-26T18:19:32.125Z,13.15
2023-03-26T18:22:04.716Z,12.98
2023-03-26T18:24:41.345Z,12.73
2023-03-26T18:27:15.092Z,12.40
2023-03-26T18:30:02.778Z,12.37
2023-03-26T18:32:33.857Z,12.16
2023-03-26T18:35:20.501Z,11.99
2023-03-26T18:37:51.273Z,12.00
2023-03-26T18:40:22.326Z,12.20
2023-03-26T18:42:56.565Z,12.29
2023-03-26T18:45:36.437Z,12.82
2023-03-26T18:48:14.272Z,12.98
2023-03-26T18:50:44.472Z,12.88
2023-03-26T18:53:21.493Z,13.46
2023-03-26T18:55:51.389Z,13.69
2023-03-26T18:58:35.234Z,13.45
2023-03-26T19:01:08.692Z,13.26
2023-03-26T19:03:44.041Z,13.05
2023-03-26T19:06:14.890Z,12.92
2023-03-26T19:08:45.719Z,13.17
2023-03-26T19:11:16.735Z,12.93
2023-03-26T19:13:46.588Z,13.13
2023-03-26T19:16:22.447Z,13.38
2023-03-26T19:18:50.958Z,13.44
2023-03-26T19:21:23.586Z,13.04
2023-03-26T19:23:52.407Z,12.95
2023-03-26T19:26:20.879Z,12.86
2023-03-26T19:28:55.060Z,12.43
2023-03-26T19:31:38.749Z,12.27
2023-03-26T19:34:17.374Z,12.17
2023-03-26T19:37:01.645Z,12.05
2023-03-26T19:39:53.083Z,12.29
2023-03-26T19:42:43.735Z,12.07
2023-03-26T19:45:23.820Z,12.20
2023-03-26T19:48:07.466Z,12.20
2023-03-26T19:50:52.994Z,12.51
2023-03-26T19:53:34.961Z,12.99
2023-03-26T19:56:11.141Z,12.97
2023-03-26T19:58:43.198Z,13.12
2023-03-26T20:01:19.325Z,13.29
2023-03-26T20:03:50.316Z,13.48
2023-03-26T20:06:25.572Z,13.31
2023-03-26T20:08:59.805Z,13.67
2023-03-26T20:11:33.686Z,13.50
2023-03-26T20:14:02.404Z,13.45
2023-03-26T20:16:32.305Z,13.29
2023-03-26T20:19:04.481Z,13.74
2023-03-26T20:21:34.856Z,13.90
2023-03-26T20:24:10.799Z,13.77
2023-03-26T20:26:39.186Z,13.48
2023-03-26T20:29:07.297Z,13.62
2023-03-26T20:31:35.370Z,13.76
2023-03-26T20:34:16.982Z,13.53
2023-03-26T20:36:45.855Z,13.77
2023-03-26T20:39:14.636Z,13.82
2023-03-26T20:41:47.476Z,13.95
2023-03-26T20:44:18.202Z,13.59
2023-03-26T20:46:48.533Z,13.52
2023-03-26T20:49:18.384Z,13.56
2023-03-26T20:51:47.025Z,13.56
2023-03-26T20:54:21.653Z,13.63
2023-03-26T20:56:50.995Z,13.70
2023-03-26T20:59:27.002Z,13.41
2023-03-26T21:01:57.189Z,13.57
2023-03-26T21:04:26.505Z,13.39
2023-03-26T21:07:00.381Z,13.21
2023-03-26T21:09:34.345Z,13.26
2023-03-26T21:12:05.861Z,13.30
2023-03-26T21:14:39.458Z,13.85
2023-03-26T21:17:14.666Z,13.63
2023-03-26T21:19:44.189Z,14.02
2023-03-26T21:23:08.098Z,13.44
2023-03-26T21:26:01.504Z,13.31
2023-03-26T21:28:46.783Z,12.78
2023-03-26T21:31:24.406Z,12.81
2023-03-26T21:33:52.988Z,12.64
2023-03-26T21:36:21.777Z,12.07
2023-03-26T21:38:50.788Z,12.28
2023-03-26T21:41:24.851Z,12.17
2023-03-26T21:43:53.219Z,11.79
2023-03-26T21:46:22.160Z,11.84
2023-03-26T21:48:50.549Z,11.40
2023-03-26T21:51:19.359Z,11.53
2023-03-26T21:53:47.739Z,11.94
2023-03-26T21:56:26.276Z,12.21
2023-03-26T21:58:57.720Z,12.27
2023-03-26T22:01:44.523Z,12.16
2023-03-26T22:04:28.288Z,12.12
2023-03-26T22:07:12.238Z,12.11
2023-03-26T22:09:41.180Z,11.93
2023-03-26T22:12:10.831Z,11.66
2023-03-26T22:14:39.166Z,11.41
2023-03-26T22:17:07.577Z,11.60
2023-03-26T22:19:36.193Z,11.37
2023-03-26T22:22:04.466Z,11.85
2023-03-26T22:24:33.198Z,11.02
2023-03-26T22:27:01.609Z,10.71
2023-03-26T22:29:29.674Z,9.93
2023-03-26T22:31:58.133Z,10.20
2023-03-26T22:34:26.366Z,10.33
2023-03-26T22:36:54.491Z,10.31
2023-03-26T22:39:23.054Z,9.94
2023-03-26T22:41:51.111Z,10.05
2023-03-26T22:44:20.570Z,10.12
2023-03-26T22:46:51.744Z,10.20
2023-03-26T22:49:20.038Z,10.17
2023-03-26T22:51:50.424Z,9.91
2023-03-26T22:54:18.581Z,9.84
2023-03-26T22:56:47.202Z,9.72
2023-03-26T22:59:15.815Z,9.54
2023-03-26T23:01:44.545Z,9.75
2023-03-26T23:04:13.186Z,9.77
2023-03-26T23:07:00.697Z,9.60
2023-03-26T23:09:29.693Z,9.82
2023-03-26T23:11:58.080Z,9.60
2023-03-26T23:14:26.467Z,9.62
2023-03-26T23:16:55.194Z,9.68
2023-03-26T23:19:23.190Z,9.65
2023-03-26T23:21:51.813Z,9.53
2023-03-26T23:24:20.016Z,9.52
2023-03-26T23:26:51.030Z,9.64
2023-03-26T23:29:19.853Z,9.70
2023-03-26T23:31:48.084Z,9.22
2023-03-26T23:34:17.271Z,9.60
2023-03-26T23:36:45.743Z,9.78
2023-03-26T23:39:13.819Z,9.35
2023-03-26T23:41:41.867Z,9.44
2023-03-26T23:44:13.760Z,9.71
2023-03-26T23:46:44.736Z,9.69
2023-03-26T23:49:13.214Z,9.55
2023-03-26T23:51:42.328Z,9.54
2023-03-26T23:54:11.758Z,9.53
2023-03-26T23:56:40.030Z,9.59
2023-03-26T23:59:08.666Z,9.82
